sensor_id;sensor_type;location;lat;lon;timestamp;P1;durP1;ratioP1;P2;durP2;ratioP2
7047;SDS011;3565;53.254;10.352;2023-11-21T00:00:02;3.53;;;2.40;;
7047;SDS011;3565;53.254;10.352;2023-11-21T00:02:55;3.07;;;2.37;;
7047;SDS011;3565;53.254;10.352;2023-11-21T00:05:24;3.00;;;2.33;;
7047;SDS011;3565;53.254;10.352;2023-11-21T00:08:13;4.17;;;2.50;;
7047;SDS011;3565;53.254;10.352;2023-11-21T00:10:43;3.80;;;2.23;;
7047;SDS011;3565;53.254;10.352;2023-11-21T00:15:58;4.13;;;3.03;;
7047;SDS011;3565;53.254;10.352;2023-11-21T00:21:06;5.03;;;3.30;;
7047;SDS011;3565;53.254;10.352;2023-11-21T00:23:38;4.70;;;3.27;;
7047;SDS011;3565;53.254;10.352;2023-11-21T00:26:11;5.17;;;3.43;;
7047;SDS011;3565;53.254;10.352;2023-11-21T00:28:50;6.80;;;4.00;;
7047;SDS011;3565;53.254;10.352;2023-11-21T00:31:19;5.93;;;4.10;;
7047;SDS011;3565;53.254;10.352;2023-11-21T00:33:49;6.77;;;4.17;;
7047;SDS011;3565;53.254;10.352;2023-11-21T00:38:58;6.57;;;4.53;;
7047;SDS011;3565;53.254;10.352;2023-11-21T00:41:28;7.03;;;4.53;;
7047;SDS011;3565;53.254;10.352;2023-11-21T00:43:59;7.80;;;5.03;;
7047;SDS011;3565;53.254;10.352;2023-11-21T00:49:11;8.43;;;4.90;;
7047;SDS011;3565;53.254;10.352;2023-11-21T00:51:42;8.43;;;5.03;;
7047;SDS011;3565;53.254;10.352;2023-11-21T00:54:12;9.97;;;5.30;;
7047;SDS011;3565;53.254;10.352;2023-11-21T00:56:55;9.10;;;5.90;;
7047;SDS011;3565;53.254;10.352;2023-11-21T01:02:23;9.50;;;5.67;;
7047;SDS011;3565;53.254;10.352;2023-11-21T01:04:54;8.63;;;6.37;;
7047;SDS011;3565;53.254;10.352;2023-11-21T01:10:03;9.83;;;6.00;;
7047;SDS011;3565;53.254;10.352;2023-11-21T01:12:35;11.90;;;5.97;;
7047;SDS011;3565;53.254;10.352;2023-11-21T01:15:08;11.00;;;6.50;;
7047;SDS011;3565;53.254;10.352;2023-11-21T01:17:39;12.00;;;6.00;;
7047;SDS011;3565;53.254;10.352;2023-11-21T01:20:18;10.17;;;6.07;;
7047;SDS011;3565;53.254;10.352;2023-11-21T01:22:48;11.83;;;6.37;;
7047;SDS011;3565;53.254;10.352;2023-11-21T01:25:17;12.37;;;6.70;;
7047;SDS011;3565;53.254;10.352;2023-11-21T01:27:58;13.60;;;6.63;;
7047;SDS011;3565;53.254;10.352;2023-11-21T01:33:10;14.90;;;7.53;;
7047;SDS011;3565;53.254;10.352;2023-11-21T01:35:42;13.40;;;6.87;;
7047;SDS011;3565;53.254;10.352;2023-11-21T01:40:52;17.30;;;8.23;;
7047;SDS011;3565;53.254;10.352;2023-11-21T01:43:22;15.90;;;8.40;;
7047;SDS011;3565;53.254;10.352;2023-11-21T01:45:52;16.57;;;8.70;;
7047;SDS011;3565;53.254;10.352;2023-11-21T01:51:04;22.23;;;11.43;;
7047;SDS011;3565;53.254;10.352;2023-11-21T01:53:34;20.30;;;11.13;;
7047;SDS011;3565;53.254;10.352;2023-11-21T01:56:08;20.03;;;10.93;;
7047;SDS011;3565;53.254;10.352;2023-11-21T01:58:39;19.70;;;10.07;;
7047;SDS011;3565;53.254;10.352;2023-11-21T02:03:47;20.50;;;10.30;;
7047;SDS011;3565;53.254;10.352;2023-11-21T02:06:16;17.47;;;9.80;;
7047;SDS011;3565;53.254;10.352;2023-11-21T02:09:00;23.17;;;10.30;;
7047;SDS011;3565;53.254;10.352;2023-11-21T02:14:10;17.30;;;9.40;;
7047;SDS011;3565;53.254;10.352;2023-11-21T02:19:23;21.40;;;10.50;;
7047;SDS011;3565;53.254;10.352;2023-11-21T02:21:53;16.73;;;10.23;;
7047;SDS011;3565;53.254;10.352;2023-11-21T02:24:27;18.27;;;10.13;;
7047;SDS011;3565;53.254;10.352;2023-11-21T02:27:08;17.50;;;9.70;;
7047;SDS011;3565;53.254;10.352;2023-11-21T02:32:21;16.97;;;9.83;;
7047;SDS011;3565;53.254;10.352;2023-11-21T02:34:56;17.77;;;9.80;;
7047;SDS011;3565;53.254;10.352;2023-11-21T02:37:34;18.63;;;9.97;;
7047;SDS011;3565;53.254;10.352;2023-11-21T02:42:52;17.63;;;10.30;;
7047;SDS011;3565;53.254;10.352;2023-11-21T02:48:23;16.67;;;9.40;;
7047;SDS011;3565;53.254;10.352;2023-11-21T02:53:40;19.00;;;9.53;;
7047;SDS011;3565;53.254;10.352;2023-11-21T02:56:09;18.27;;;9.77;;
7047;SDS011;3565;53.254;10.352;2023-11-21T02:58:40;17.37;;;9.40;;
7047;SDS011;3565;53.254;10.352;2023-11-21T03:03:51;19.13;;;10.07;;
7047;SDS011;3565;53.254;10.352;2023-11-21T03:09:01;16.67;;;9.37;;
7047;SDS011;3565;53.254;10.352;2023-11-21T03:11:32;19.20;;;10.43;;
7047;SDS011;3565;53.254;10.352;2023-11-21T03:14:05;17.23;;;9.40;;
7047;SDS011;3565;53.254;10.352;2023-11-21T03:19:24;18.13;;;9.20;;
7047;SDS011;3565;53.254;10.352;2023-11-21T03:22:03;18.07;;;9.53;;
7047;SDS011;3565;53.254;10.352;2023-11-21T03:24:35;17.53;;;9.93;;
7047;SDS011;3565;53.254;10.352;2023-11-21T03:29:45;16.50;;;9.27;;
7047;SDS011;3565;53.254;10.352;2023-11-21T03:32:16;15.03;;;8.87;;
7047;SDS011;3565;53.254;10.352;2023-11-21T03:35:05;14.07;;;8.70;;
7047;SDS011;3565;53.254;10.352;2023-11-21T03:37:46;13.60;;;8.27;;
7047;SDS011;3565;53.254;10.352;2023-11-21T03:42:55;14.60;;;9.07;;
7047;SDS011;3565;53.254;10.352;2023-11-21T03:45:30;15.47;;;8.73;;
7047;SDS011;3565;53.254;10.352;2023-11-21T03:50:40;16.03;;;8.60;;
7047;SDS011;3565;53.254;10.352;2023-11-21T03:53:12;15.83;;;8.77;;
7047;SDS011;3565;53.254;10.352;2023-11-21T03:55:41;15.03;;;8.30;;
7047;SDS011;3565;53.254;10.352;2023-11-21T04:00:51;14.20;;;7.97;;
7047;SDS011;3565;53.254;10.352;2023-11-21T04:03:21;15.47;;;8.53;;
7047;SDS011;3565;53.254;10.352;2023-11-21T04:05:51;14.83;;;8.93;;
7047;SDS011;3565;53.254;10.352;2023-11-21T04:11:02;11.67;;;7.87;;
7047;SDS011;3565;53.254;10.352;2023-11-21T04:13:32;13.40;;;7.70;;
7047;SDS011;3565;53.254;10.352;2023-11-21T04:16:05;12.40;;;8.40;;
7047;SDS011;3565;53.254;10.352;2023-11-21T04:18:37;14.93;;;8.07;;
7047;SDS011;3565;53.254;10.352;2023-11-21T04:23:44;14.83;;;8.00;;
7047;SDS011;3565;53.254;10.352;2023-11-21T04:28:53;13.90;;;9.40;;
7047;SDS011;3565;53.254;10.352;2023-11-21T04:31:23;11.43;;;7.80;;
7047;SDS011;3565;53.254;10.352;2023-11-21T04:33:52;13.30;;;8.30;;
7047;SDS011;3565;53.254;10.352;2023-11-21T04:39:00;13.00;;;8.37;;
7047;SDS011;3565;53.254;10.352;2023-11-21T04:41:33;13.30;;;8.37;;
7047;SDS011;3565;53.254;10.352;2023-11-21T04:44:06;16.67;;;8.50;;
7047;SDS011;3565;53.254;10.352;2023-11-21T04:46:37;14.70;;;8.20;;
7047;SDS011;3565;53.254;10.352;2023-11-21T04:49:18;13.87;;;8.33;;
7047;SDS011;3565;53.254;10.352;2023-11-21T04:51:49;13.50;;;7.93;;
7047;SDS011;3565;53.254;10.352;2023-11-21T04:54:18;12.63;;;8.33;;
7047;SDS011;3565;53.254;10.352;2023-11-21T04:56:47;14.27;;;8.50;;
7047;SDS011;3565;53.254;10.352;2023-11-21T05:01:55;13.47;;;7.90;;
7047;SDS011;3565;53.254;10.352;2023-11-21T05:04:26;13.73;;;7.53;;
7047;SDS011;3565;53.254;10.352;2023-11-21T05:09:42;13.77;;;8.63;;
7047;SDS011;3565;53.254;10.352;2023-11-21T05:12:12;14.73;;;8.07;;
7047;SDS011;3565;53.254;10.352;2023-11-21T05:14:45;11.57;;;7.70;;
7047;SDS011;3565;53.254;10.352;2023-11-21T05:19:53;12.67;;;8.30;;
7047;SDS011;3565;53.254;10.352;2023-11-21T05:22:23;14.97;;;8.40;;
7047;SDS011;3565;53.254;10.352;2023-11-21T05:24:54;12.30;;;7.67;;
7047;SDS011;3565;53.254;10.352;2023-11-21T05:30:03;17.03;;;8.30;;
7047;SDS011;3565;53.254;10.352;2023-11-21T05:32:37;13.73;;;8.73;;
7047;SDS011;3565;53.254;10.352;2023-11-21T05:35:07;12.33;;;8.30;;
7047;SDS011;3565;53.254;10.352;2023-11-21T05:37:39;16.13;;;8.17;;
7047;SDS011;3565;53.254;10.352;2023-11-21T05:42:57;14.53;;;8.77;;
7047;SDS011;3565;53.254;10.352;2023-11-21T05:45:26;15.80;;;8.90;;
7047;SDS011;3565;53.254;10.352;2023-11-21T05:47:57;17.87;;;9.43;;
7047;SDS011;3565;53.254;10.352;2023-11-21T05:53:03;15.47;;;9.00;;
7047;SDS011;3565;53.254;10.352;2023-11-21T05:55:33;16.27;;;8.57;;
7047;SDS011;3565;53.254;10.352;2023-11-21T05:58:11;14.33;;;8.10;;
7047;SDS011;3565;53.254;10.352;2023-11-21T06:00:41;17.93;;;9.50;;
7047;SDS011;3565;53.254;10.352;2023-11-21T06:03:10;14.77;;;8.80;;
7047;SDS011;3565;53.254;10.352;2023-11-21T06:05:39;13.97;;;8.63;;
7047;SDS011;3565;53.254;10.352;2023-11-21T06:08:08;14.77;;;8.47;;
7047;SDS011;3565;53.254;10.352;2023-11-21T06:10:37;17.60;;;9.20;;
7047;SDS011;3565;53.254;10.352;2023-11-21T06:13:06;13.40;;;8.83;;
7047;SDS011;3565;53.254;10.352;2023-11-21T06:15:45;15.10;;;9.13;;
7047;SDS011;3565;53.254;10.352;2023-11-21T06:18:14;13.97;;;8.40;;
7047;SDS011;3565;53.254;10.352;2023-11-21T06:20:44;14.70;;;8.23;;
7047;SDS011;3565;53.254;10.352;2023-11-21T06:25:51;15.97;;;9.27;;
7047;SDS011;3565;53.254;10.352;2023-11-21T06:28:20;14.33;;;8.60;;
7047;SDS011;3565;53.254;10.352;2023-11-21T06:30:49;13.90;;;8.37;;
7047;SDS011;3565;53.254;10.352;2023-11-21T06:35:56;14.10;;;8.40;;
7047;SDS011;3565;53.254;10.352;2023-11-21T06:38:26;13.40;;;8.30;;
7047;SDS011;3565;53.254;10.352;2023-11-21T06:40:56;13.03;;;8.17;;
7047;SDS011;3565;53.254;10.352;2023-11-21T06:46:05;16.13;;;8.53;;
7047;SDS011;3565;53.254;10.352;2023-11-21T06:48:34;14.83;;;8.80;;
7047;SDS011;3565;53.254;10.352;2023-11-21T06:53:42;15.60;;;8.37;;
7047;SDS011;3565;53.254;10.352;2023-11-21T06:56:16;14.17;;;8.43;;
7047;SDS011;3565;53.254;10.352;2023-11-21T06:58:45;14.93;;;8.27;;
7047;SDS011;3565;53.254;10.352;2023-11-21T07:03:53;15.37;;;7.40;;
7047;SDS011;3565;53.254;10.352;2023-11-21T07:06:22;15.10;;;8.50;;
7047;SDS011;3565;53.254;10.352;2023-11-21T07:08:51;13.43;;;8.97;;
7047;SDS011;3565;53.254;10.352;2023-11-21T07:13:57;14.37;;;8.90;;
7047;SDS011;3565;53.254;10.352;2023-11-21T07:16:28;14.63;;;8.70;;
7047;SDS011;3565;53.254;10.352;2023-11-21T07:18:56;13.50;;;9.30;;
7047;SDS011;3565;53.254;10.352;2023-11-21T07:24:03;16.50;;;9.03;;
7047;SDS011;3565;53.254;10.352;2023-11-21T07:26:33;14.07;;;8.23;;
7047;SDS011;3565;53.254;10.352;2023-11-21T07:29:03;16.17;;;9.17;;
7047;SDS011;3565;53.254;10.352;2023-11-21T07:34:09;14.30;;;8.80;;
7047;SDS011;3565;53.254;10.352;2023-11-21T07:36:38;15.07;;;9.67;;
7047;SDS011;3565;53.254;10.352;2023-11-21T07:39:08;16.40;;;9.40;;
7047;SDS011;3565;53.254;10.352;2023-11-21T07:41:37;13.70;;;9.20;;
7047;SDS011;3565;53.254;10.352;2023-11-21T07:46:45;14.27;;;9.67;;
7047;SDS011;3565;53.254;10.352;2023-11-21T07:49:14;15.50;;;9.30;;
7047;SDS011;3565;53.254;10.352;2023-11-21T07:51:44;16.63;;;8.63;;
7047;SDS011;3565;53.254;10.352;2023-11-21T07:54:23;14.90;;;8.70;;
7047;SDS011;3565;53.254;10.352;2023-11-21T07:56:52;12.97;;;8.77;;
7047;SDS011;3565;53.254;10.352;2023-11-21T07:59:22;13.23;;;8.30;;
7047;SDS011;3565;53.254;10.352;2023-11-21T08:01:51;15.07;;;8.67;;
7047;SDS011;3565;53.254;10.352;2023-11-21T08:06:57;12.83;;;8.43;;
7047;SDS011;3565;53.254;10.352;2023-11-21T08:09:26;15.43;;;9.57;;
7047;SDS011;3565;53.254;10.352;2023-11-21T08:11:55;18.67;;;9.87;;
7047;SDS011;3565;53.254;10.352;2023-11-21T08:17:04;16.37;;;9.33;;
7047;SDS011;3565;53.254;10.352;2023-11-21T08:19:33;14.93;;;9.90;;
7047;SDS011;3565;53.254;10.352;2023-11-21T08:24:40;15.77;;;9.63;;
7047;SDS011;3565;53.254;10.352;2023-11-21T08:27:09;16.63;;;9.30;;
7047;SDS011;3565;53.254;10.352;2023-11-21T08:29:40;15.40;;;8.73;;
7047;SDS011;3565;53.254;10.352;2023-11-21T08:34:46;15.27;;;9.10;;
7047;SDS011;3565;53.254;10.352;2023-11-21T08:37:17;15.83;;;9.20;;
7047;SDS011;3565;53.254;10.352;2023-11-21T08:39:47;15.23;;;8.90;;
7047;SDS011;3565;53.254;10.352;2023-11-21T08:44:53;17.00;;;8.97;;
7047;SDS011;3565;53.254;10.352;2023-11-21T08:47:23;17.37;;;9.90;;
7047;SDS011;3565;53.254;10.352;2023-11-21T08:49:52;15.37;;;8.80;;
7047;SDS011;3565;53.254;10.352;2023-11-21T08:54:58;14.33;;;9.17;;
7047;SDS011;3565;53.254;10.352;2023-11-21T08:57:29;11.70;;;8.40;;
7047;SDS011;3565;53.254;10.352;2023-11-21T08:59:57;17.97;;;9.60;;
7047;SDS011;3565;53.254;10.352;2023-11-21T09:02:26;11.77;;;8.00;;
7047;SDS011;3565;53.254;10.352;2023-11-21T09:04:55;18.17;;;8.73;;
7047;SDS011;3565;53.254;10.352;2023-11-21T09:10:02;15.67;;;9.00;;
7047;SDS011;3565;53.254;10.352;2023-11-21T09:15:11;13.40;;;8.40;;
7047;SDS011;3565;53.254;10.352;2023-11-21T09:17:41;14.27;;;8.80;;
7047;SDS011;3565;53.254;10.352;2023-11-21T09:22:48;12.03;;;7.87;;
7047;SDS011;3565;53.254;10.352;2023-11-21T09:25:17;15.07;;;8.73;;
7047;SDS011;3565;53.254;10.352;2023-11-21T09:27:47;12.70;;;8.80;;
7047;SDS011;3565;53.254;10.352;2023-11-21T09:32:53;12.17;;;8.00;;
7047;SDS011;3565;53.254;10.352;2023-11-21T09:35:22;14.27;;;8.10;;
7047;SDS011;3565;53.254;10.352;2023-11-21T09:37:51;10.83;;;7.33;;
7047;SDS011;3565;53.254;10.352;2023-11-21T09:42:58;9.47;;;7.40;;
7047;SDS011;3565;53.254;10.352;2023-11-21T09:45:27;10.77;;;7.33;;
7047;SDS011;3565;53.254;10.352;2023-11-21T09:47:59;11.43;;;8.03;;
7047;SDS011;3565;53.254;10.352;2023-11-21T09:53:08;9.40;;;7.00;;
7047;SDS011;3565;53.254;10.352;2023-11-21T09:58:19;12.00;;;7.93;;
7047;SDS011;3565;53.254;10.352;2023-11-21T10:00:52;9.07;;;6.53;;
7047;SDS011;3565;53.254;10.352;2023-11-21T10:06:00;10.33;;;6.83;;
7047;SDS011;3565;53.254;10.352;2023-11-21T10:08:31;8.83;;;6.20;;
7047;SDS011;3565;53.254;10.352;2023-11-21T10:13:38;9.37;;;5.90;;
7047;SDS011;3565;53.254;10.352;2023-11-21T10:16:08;10.07;;;6.40;;
7047;SDS011;3565;53.254;10.352;2023-11-21T10:18:39;7.80;;;5.50;;
7047;SDS011;3565;53.254;10.352;2023-11-21T10:21:08;10.73;;;5.40;;
7047;SDS011;3565;53.254;10.352;2023-11-21T10:23:38;7.87;;;5.87;;
7047;SDS011;3565;53.254;10.352;2023-11-21T10:26:07;6.50;;;5.30;;
7047;SDS011;3565;53.254;10.352;2023-11-21T10:28:55;6.50;;;5.20;;
7047;SDS011;3565;53.254;10.352;2023-11-21T10:34:13;8.53;;;4.80;;
7047;SDS011;3565;53.254;10.352;2023-11-21T10:36:42;6.30;;;4.93;;
7047;SDS011;3565;53.254;10.352;2023-11-21T10:39:14;7.87;;;5.80;;
7047;SDS011;3565;53.254;10.352;2023-11-21T10:41:45;7.53;;;5.20;;
7047;SDS011;3565;53.254;10.352;2023-11-21T10:44:15;6.47;;;4.93;;
7047;SDS011;3565;53.254;10.352;2023-11-21T10:46:53;5.73;;;4.50;;
7047;SDS011;3565;53.254;10.352;2023-11-21T10:49:24;8.60;;;5.07;;
7047;SDS011;3565;53.254;10.352;2023-11-21T10:51:53;6.33;;;5.03;;
7047;SDS011;3565;53.254;10.352;2023-11-21T10:57:00;7.57;;;4.93;;
7047;SDS011;3565;53.254;10.352;2023-11-21T10:59:31;8.40;;;4.87;;
7047;SDS011;3565;53.254;10.352;2023-11-21T11:02:00;5.57;;;4.60;;
7047;SDS011;3565;53.254;10.352;2023-11-21T11:04:40;6.57;;;5.30;;
7047;SDS011;3565;53.254;10.352;2023-11-21T11:07:09;6.60;;;5.00;;
7047;SDS011;3565;53.254;10.352;2023-11-21T11:09:40;7.30;;;5.10;;
7047;SDS011;3565;53.254;10.352;2023-11-21T11:12:10;6.40;;;4.70;;
7047;SDS011;3565;53.254;10.352;2023-11-21T11:14:49;7.17;;;4.83;;
7047;SDS011;3565;53.254;10.352;2023-11-21T11:19:56;7.30;;;5.00;;
7047;SDS011;3565;53.254;10.352;2023-11-21T11:25:12;8.20;;;5.10;;
7047;SDS011;3565;53.254;10.352;2023-11-21T11:27:48;6.27;;;4.83;;
7047;SDS011;3565;53.254;10.352;2023-11-21T11:33:01;6.53;;;5.10;;
7047;SDS011;3565;53.254;10.352;2023-11-21T11:35:33;6.40;;;4.90;;
7047;SDS011;3565;53.254;10.352;2023-11-21T11:38:05;8.90;;;5.57;;
7047;SDS011;3565;53.254;10.352;2023-11-21T11:40:40;7.40;;;5.10;;
7047;SDS011;3565;53.254;10.352;2023-11-21T11:43:10;7.23;;;4.60;;
7047;SDS011;3565;53.254;10.352;2023-11-21T11:45:39;6.13;;;4.90;;
7047;SDS011;3565;53.254;10.352;2023-11-21T11:48:12;5.60;;;4.67;;
7047;SDS011;3565;53.254;10.352;2023-11-21T11:51:04;6.13;;;4.40;;
7047;SDS011;3565;53.254;10.352;2023-11-21T11:56:22;8.90;;;4.40;;
7047;SDS011;3565;53.254;10.352;2023-11-21T11:58:53;4.33;;;3.93;;
7047;SDS011;3565;53.254;10.352;2023-11-21T12:07:08;4.97;;;3.93;;
7047;SDS011;3565;53.254;10.352;2023-11-21T12:09:44;4.83;;;3.73;;
7047;SDS011;3565;53.254;10.352;2023-11-21T12:14:54;4.90;;;3.80;;
7047;SDS011;3565;53.254;10.352;2023-11-21T12:17:23;6.37;;;4.10;;
7047;SDS011;3565;53.254;10.352;2023-11-21T12:19:52;4.90;;;3.70;;
7047;SDS011;3565;53.254;10.352;2023-11-21T12:24:58;4.67;;;3.77;;
7047;SDS011;3565;53.254;10.352;2023-11-21T12:27:27;5.43;;;3.90;;
7047;SDS011;3565;53.254;10.352;2023-11-21T12:29:56;4.37;;;3.60;;
7047;SDS011;3565;53.254;10.352;2023-11-21T12:32:25;5.10;;;4.10;;
7047;SDS011;3565;53.254;10.352;2023-11-21T12:34:54;7.57;;;6.07;;
7047;SDS011;3565;53.254;10.352;2023-11-21T12:37:32;19.43;;;8.00;;
7047;SDS011;3565;53.254;10.352;2023-11-21T12:40:01;7.80;;;5.03;;
7047;SDS011;3565;53.254;10.352;2023-11-21T12:42:31;64.53;;;20.77;;
7047;SDS011;3565;53.254;10.352;2023-11-21T12:47:48;6.63;;;4.33;;
7047;SDS011;3565;53.254;10.352;2023-11-21T12:50:19;4.70;;;4.07;;
7047;SDS011;3565;53.254;10.352;2023-11-21T12:55:29;5.90;;;4.13;;
7047;SDS011;3565;53.254;10.352;2023-11-21T12:57:59;4.60;;;3.60;;
7047;SDS011;3565;53.254;10.352;2023-11-21T13:00:34;5.23;;;4.30;;
7047;SDS011;3565;53.254;10.352;2023-11-21T13:05:42;5.23;;;4.47;;
7047;SDS011;3565;53.254;10.352;2023-11-21T13:08:12;5.23;;;4.17;;
7047;SDS011;3565;53.254;10.352;2023-11-21T13:10:43;5.43;;;4.37;;
7047;SDS011;3565;53.254;10.352;2023-11-21T13:13:13;5.50;;;4.17;;
7047;SDS011;3565;53.254;10.352;2023-11-21T13:15:48;5.17;;;4.23;;
7047;SDS011;3565;53.254;10.352;2023-11-21T13:18:17;5.57;;;4.00;;
7047;SDS011;3565;53.254;10.352;2023-11-21T13:20:56;5.70;;;4.40;;
7047;SDS011;3565;53.254;10.352;2023-11-21T13:26:03;7.50;;;4.47;;
7047;SDS011;3565;53.254;10.352;2023-11-21T13:28:33;4.70;;;4.17;;
7047;SDS011;3565;53.254;10.352;2023-11-21T13:31:04;5.03;;;4.47;;
7047;SDS011;3565;53.254;10.352;2023-11-21T13:33:38;6.93;;;4.87;;
7047;SDS011;3565;53.254;10.352;2023-11-21T13:36:09;6.50;;;4.83;;
7047;SDS011;3565;53.254;10.352;2023-11-21T13:38:40;20.47;;;9.77;;
7047;SDS011;3565;53.254;10.352;2023-11-21T13:41:09;29.57;;;11.60;;
7047;SDS011;3565;53.254;10.352;2023-11-21T13:43:40;22.03;;;9.93;;
7047;SDS011;3565;53.254;10.352;2023-11-21T13:46:12;11.17;;;5.67;;
7047;SDS011;3565;53.254;10.352;2023-11-21T13:48:51;6.03;;;4.80;;
7047;SDS011;3565;53.254;10.352;2023-11-21T13:53:58;5.63;;;4.63;;
7047;SDS011;3565;53.254;10.352;2023-11-21T13:56:28;9.63;;;4.93;;
7047;SDS011;3565;53.254;10.352;2023-11-21T13:58:58;9.37;;;5.40;;
7047;SDS011;3565;53.254;10.352;2023-11-21T14:04:06;4.97;;;4.20;;
7047;SDS011;3565;53.254;10.352;2023-11-21T14:06:37;6.07;;;4.30;;
7047;SDS011;3565;53.254;10.352;2023-11-21T14:09:08;4.87;;;3.70;;
7047;SDS011;3565;53.254;10.352;2023-11-21T14:11:39;6.93;;;4.53;;
7047;SDS011;3565;53.254;10.352;2023-11-21T14:14:08;6.03;;;4.50;;
7047;SDS011;3565;53.254;10.352;2023-11-21T14:16:37;6.23;;;4.20;;
7047;SDS011;3565;53.254;10.352;2023-11-21T14:21:43;5.87;;;4.67;;
7047;SDS011;3565;53.254;10.352;2023-11-21T14:26:52;6.63;;;4.47;;
7047;SDS011;3565;53.254;10.352;2023-11-21T14:29:20;8.80;;;4.50;;
7047;SDS011;3565;53.254;10.352;2023-11-21T14:34:29;5.50;;;4.20;;
7047;SDS011;3565;53.254;10.352;2023-11-21T14:36:58;6.70;;;4.60;;
7047;SDS011;3565;53.254;10.352;2023-11-21T14:39:28;5.27;;;4.40;;
7047;SDS011;3565;53.254;10.352;2023-11-21T14:44:37;4.93;;;4.17;;
7047;SDS011;3565;53.254;10.352;2023-11-21T14:47:07;5.50;;;4.37;;
7047;SDS011;3565;53.254;10.352;2023-11-21T14:49:46;7.07;;;5.40;;
7047;SDS011;3565;53.254;10.352;2023-11-21T14:52:19;8.57;;;5.57;;
7047;SDS011;3565;53.254;10.352;2023-11-21T14:57:37;7.80;;;5.40;;
7047;SDS011;3565;53.254;10.352;2023-11-21T15:02:43;7.97;;;5.70;;
7047;SDS011;3565;53.254;10.352;2023-11-21T15:05:16;7.57;;;5.70;;
7047;SDS011;3565;53.254;10.352;2023-11-21T15:07:46;7.10;;;4.90;;
7047;SDS011;3565;53.254;10.352;2023-11-21T15:10:16;7.07;;;4.67;;
7047;SDS011;3565;53.254;10.352;2023-11-21T15:15:24;7.27;;;5.07;;
7047;SDS011;3565;53.254;10.352;2023-11-21T15:17:54;10.20;;;5.30;;
7047;SDS011;3565;53.254;10.352;2023-11-21T15:23:00;8.90;;;5.27;;
7047;SDS011;3565;53.254;10.352;2023-11-21T15:25:31;7.00;;;5.53;;
7047;SDS011;3565;53.254;10.352;2023-11-21T15:28:09;8.03;;;5.13;;
7047;SDS011;3565;53.254;10.352;2023-11-21T15:30:38;8.40;;;5.17;;
7047;SDS011;3565;53.254;10.352;2023-11-21T15:33:07;6.17;;;5.00;;
7047;SDS011;3565;53.254;10.352;2023-11-21T15:35:36;5.47;;;4.60;;
7047;SDS011;3565;53.254;10.352;2023-11-21T15:38:06;6.27;;;4.63;;
7047;SDS011;3565;53.254;10.352;2023-11-21T15:40:35;6.83;;;4.07;;
7047;SDS011;3565;53.254;10.352;2023-11-21T15:43:04;6.27;;;4.43;;
7047;SDS011;3565;53.254;10.352;2023-11-21T15:48:10;6.03;;;4.47;;
7047;SDS011;3565;53.254;10.352;2023-11-21T15:50:40;6.40;;;4.50;;
7047;SDS011;3565;53.254;10.352;2023-11-21T15:53:10;4.60;;;4.10;;
7047;SDS011;3565;53.254;10.352;2023-11-21T15:55:39;8.03;;;4.23;;
7047;SDS011;3565;53.254;10.352;2023-11-21T15:58:08;4.37;;;3.87;;
7047;SDS011;3565;53.254;10.352;2023-11-21T16:00:37;5.90;;;4.00;;
7047;SDS011;3565;53.254;10.352;2023-11-21T16:03:07;8.33;;;4.97;;
7047;SDS011;3565;53.254;10.352;2023-11-21T16:05:46;9.83;;;5.53;;
7047;SDS011;3565;53.254;10.352;2023-11-21T16:08:15;7.33;;;4.87;;
7047;SDS011;3565;53.254;10.352;2023-11-21T16:10:44;30.13;;;15.67;;
7047;SDS011;3565;53.254;10.352;2023-11-21T16:15:51;22.37;;;15.20;;
7047;SDS011;3565;53.254;10.352;2023-11-21T16:18:20;7.37;;;5.70;;
7047;SDS011;3565;53.254;10.352;2023-11-21T16:23:27;6.83;;;5.33;;
7047;SDS011;3565;53.254;10.352;2023-11-21T16:25:57;5.70;;;5.10;;
7047;SDS011;3565;53.254;10.352;2023-11-21T16:28:27;7.17;;;5.80;;
7047;SDS011;3565;53.254;10.352;2023-11-21T16:30:57;7.43;;;5.63;;
7047;SDS011;3565;53.254;10.352;2023-11-21T16:36:04;7.43;;;5.60;;
7047;SDS011;3565;53.254;10.352;2023-11-21T16:38:33;9.17;;;4.77;;
7047;SDS011;3565;53.254;10.352;2023-11-21T16:43:40;7.50;;;5.33;;
7047;SDS011;3565;53.254;10.352;2023-11-21T16:46:10;5.87;;;4.10;;
7047;SDS011;3565;53.254;10.352;2023-11-21T16:48:40;5.87;;;4.00;;
7047;SDS011;3565;53.254;10.352;2023-11-21T16:51:09;4.90;;;3.70;;
7047;SDS011;3565;53.254;10.352;2023-11-21T16:53:38;4.70;;;4.00;;
7047;SDS011;3565;53.254;10.352;2023-11-21T16:56:09;4.63;;;3.80;;
7047;SDS011;3565;53.254;10.352;2023-11-21T16:58:38;5.77;;;3.60;;
7047;SDS011;3565;53.254;10.352;2023-11-21T17:01:07;4.30;;;3.87;;
7047;SDS011;3565;53.254;10.352;2023-11-21T17:03:36;5.73;;;3.40;;
7047;SDS011;3565;53.254;10.352;2023-11-21T17:06:05;4.87;;;3.70;;
7047;SDS011;3565;53.254;10.352;2023-11-21T17:11:12;6.10;;;3.60;;
7047;SDS011;3565;53.254;10.352;2023-11-21T17:13:41;6.10;;;3.67;;
7047;SDS011;3565;53.254;10.352;2023-11-21T17:18:47;6.43;;;3.53;;
7047;SDS011;3565;53.254;10.352;2023-11-21T17:21:16;4.43;;;3.57;;
7047;SDS011;3565;53.254;10.352;2023-11-21T17:23:45;5.87;;;3.70;;
7047;SDS011;3565;53.254;10.352;2023-11-21T17:26:23;6.20;;;3.50;;
7047;SDS011;3565;53.254;10.352;2023-11-21T17:28:52;5.03;;;3.57;;
7047;SDS011;3565;53.254;10.352;2023-11-21T17:31:23;4.93;;;3.67;;
7047;SDS011;3565;53.254;10.352;2023-11-21T17:36:29;4.83;;;3.30;;
7047;SDS011;3565;53.254;10.352;2023-11-21T17:38:58;4.40;;;3.50;;
7047;SDS011;3565;53.254;10.352;2023-11-21T17:44:05;3.80;;;3.20;;
7047;SDS011;3565;53.254;10.352;2023-11-21T17:46:34;4.07;;;3.30;;
7047;SDS011;3565;53.254;10.352;2023-11-21T17:49:03;5.37;;;4.20;;
7047;SDS011;3565;53.254;10.352;2023-11-21T17:51:37;5.53;;;3.60;;
7047;SDS011;3565;53.254;10.352;2023-11-21T17:54:06;5.60;;;3.70;;
7047;SDS011;3565;53.254;10.352;2023-11-21T17:59:12;5.73;;;4.03;;
7047;SDS011;3565;53.254;10.352;2023-11-21T18:01:42;5.23;;;3.70;;
7047;SDS011;3565;53.254;10.352;2023-11-21T18:04:12;3.73;;;3.30;;
7047;SDS011;3565;53.254;10.352;2023-11-21T18:06:41;6.37;;;3.93;;
7047;SDS011;3565;53.254;10.352;2023-11-21T18:09:10;3.70;;;3.23;;
7047;SDS011;3565;53.254;10.352;2023-11-21T18:11:41;4.90;;;3.23;;
7047;SDS011;3565;53.254;10.352;2023-11-21T18:14:11;4.30;;;3.60;;
7047;SDS011;3565;53.254;10.352;2023-11-21T18:16:40;4.20;;;2.93;;
7047;SDS011;3565;53.254;10.352;2023-11-21T18:19:10;5.73;;;3.37;;
7047;SDS011;3565;53.254;10.352;2023-11-21T18:21:48;6.10;;;3.50;;
7047;SDS011;3565;53.254;10.352;2023-11-21T18:26:54;5.57;;;3.33;;
7047;SDS011;3565;53.254;10.352;2023-11-21T18:29:23;4.13;;;3.57;;
7047;SDS011;3565;53.254;10.352;2023-11-21T18:34:29;4.67;;;3.10;;
7047;SDS011;3565;53.254;10.352;2023-11-21T18:36:58;5.43;;;3.60;;
7047;SDS011;3565;53.254;10.352;2023-11-21T18:39:27;4.10;;;3.40;;
7047;SDS011;3565;53.254;10.352;2023-11-21T18:44:33;4.70;;;3.50;;
7047;SDS011;3565;53.254;10.352;2023-11-21T18:47:03;6.13;;;3.50;;
7047;SDS011;3565;53.254;10.352;2023-11-21T18:49:35;4.90;;;3.50;;
7047;SDS011;3565;53.254;10.352;2023-11-21T18:52:06;6.70;;;4.07;;
7047;SDS011;3565;53.254;10.352;2023-11-21T18:57:12;5.13;;;3.40;;
7047;SDS011;3565;53.254;10.352;2023-11-21T18:59:41;4.10;;;3.53;;
7047;SDS011;3565;53.254;10.352;2023-11-21T19:02:12;5.10;;;3.83;;
7047;SDS011;3565;53.254;10.352;2023-11-21T19:07:18;5.00;;;3.50;;
7047;SDS011;3565;53.254;10.352;2023-11-21T19:09:49;5.20;;;3.40;;
7047;SDS011;3565;53.254;10.352;2023-11-21T19:14:56;4.07;;;3.53;;
7047;SDS011;3565;53.254;10.352;2023-11-21T19:17:25;6.17;;;3.50;;
7047;SDS011;3565;53.254;10.352;2023-11-21T19:19:54;4.33;;;3.20;;
7047;SDS011;3565;53.254;10.352;2023-11-21T19:25:00;5.57;;;3.30;;
7047;SDS011;3565;53.254;10.352;2023-11-21T19:27:30;6.40;;;3.20;;
7047;SDS011;3565;53.254;10.352;2023-11-21T19:29:59;4.10;;;3.50;;
7047;SDS011;3565;53.254;10.352;2023-11-21T19:32:28;4.97;;;3.63;;
7047;SDS011;3565;53.254;10.352;2023-11-21T19:37:39;5.10;;;3.33;;
7047;SDS011;3565;53.254;10.352;2023-11-21T19:42:46;4.03;;;3.03;;